createdAt,value
2022-12-04T00:01:19.150Z,102380.00
2022-12-04T00:03:46.007Z,102392.09
2022-12-04T00:06:15.568Z,102385.59
2022-12-04T00:08:42.854Z,102385.31
2022-12-04T00:11:11.452Z,102377.94
2022-12-04T00:13:38.752Z,102373.41
2022-12-04T00:16:07.356Z,102359.13
2022-12-04T00:18:34.648Z,102370.78
2022-12-04T00:21:08.038Z,102364.63
2022-12-04T00:23:36.085Z,102365.47
2022-12-04T00:26:04.997Z,102360.09
2022-12-04T00:28:31.973Z,102358.19
2022-12-04T00:30:58.726Z,102360.53
2022-12-04T00:33:25.343Z,102359.06
2022-12-04T00:35:59.305Z,102353.69
2022-12-04T00:38:26.322Z,102345.59
2022-12-04T00:40:53.632Z,102349.47
2022-12-04T00:43:20.684Z,102353.81
2022-12-04T00:45:47.126Z,102349.94
2022-12-04T00:48:13.582Z,102343.78
2022-12-04T00:50:40.479Z,102349.25
2022-12-04T00:53:07.063Z,102354.31
2022-12-04T00:55:33.527Z,102352.41
2022-12-04T00:58:00.315Z,102354.34
2022-12-04T01:00:26.890Z,102360.63
2022-12-04T01:02:53.731Z,102348.19
2022-12-04T01:05:20.277Z,102356.41
2022-12-04T01:07:46.844Z,102356.41
2022-12-04T01:10:13.657Z,102357.22
2022-12-04T01:12:40.077Z,102368.84
2022-12-04T01:15:06.931Z,102361.13
2022-12-04T01:17:33.399Z,102355.72
2022-12-04T01:19:59.839Z,102354.22
2022-12-04T01:22:26.280Z,102362.75
2022-12-04T01:24:56.118Z,102351.19
2022-12-04T01:27:23.400Z,102350.03
2022-12-04T01:29:50.170Z,102359.75
2022-12-04T01:32:16.993Z,102354.34
2022-12-04T01:34:43.484Z,102353.19
2022-12-04T01:37:09.963Z,102352.06
2022-12-04T01:39:37.501Z,102345.09
2022-12-04T01:42:04.887Z,102351.34
2022-12-04T01:44:32.260Z,102350.19
2022-12-04T01:47:00.727Z,102346.72
2022-12-04T01:49:36.620Z,102358.34
2022-12-04T01:52:19.748Z,102352.56
2022-12-04T01:54:49.829Z,102354.16
2022-12-04T01:57:19.050Z,102353.38
2022-12-04T01:59:53.421Z,102357.66
2022-12-04T02:02:27.457Z,102349.56
2022-12-04T02:04:54.660Z,102347.25
2022-12-04T02:07:21.112Z,102343.00
2022-12-04T02:09:53.897Z,102344.19
2022-12-04T02:12:24.183Z,102344.63
2022-12-04T02:15:16.597Z,102343.84
2022-12-04T02:17:59.587Z,102337.28
2022-12-04T02:20:33.698Z,102336.94
2022-12-04T02:23:06.192Z,102336.16
2022-12-04T02:25:38.710Z,102331.16
2022-12-04T02:28:09.326Z,102337.38
2022-12-04T02:30:39.895Z,102337.00
2022-12-04T02:33:21.708Z,102336.25
2022-12-04T02:35:55.106Z,102339.72
2022-12-04T02:38:27.060Z,102330.06
2022-12-04T02:41:17.221Z,102327.03
2022-12-04T02:43:57.908Z,102338.22
2022-12-04T02:46:34.255Z,102332.44
2022-12-04T02:49:03.381Z,102323.19
2022-12-04T02:51:34.637Z,102327.47
2022-12-04T02:54:09.237Z,102318.19
2022-12-04T02:56:40.999Z,102327.09
2022-12-04T02:59:17.312Z,102333.66
2022-12-04T03:01:48.970Z,102327.13
2022-12-04T03:04:23.474Z,102335.22
2022-12-04T03:06:57.286Z,102328.69
2022-12-04T03:09:28.459Z,102331.78
2022-12-04T03:12:00.788Z,102330.25
2022-12-04T03:14:41.173Z,102328.34
2022-12-04T03:17:17.854Z,102321.75
2022-12-04T03:19:50.910Z,102328.34
2022-12-04T03:22:18.713Z,102327.19
2022-12-04T03:24:56.580Z,102321.81
2022-12-04T03:27:36.494Z,102322.63
2022-12-04T03:30:10.366Z,102312.59
2022-12-04T03:32:55.791Z,102319.94
2022-12-04T03:35:40.693Z,102311.81
2022-12-04T03:38:15.299Z,102309.50
2022-12-04T03:40:47.484Z,102313.00
2022-12-04T03:43:23.029Z,102308.78
2022-12-04T03:46:15.930Z,102307.22
2022-12-04T03:49:08.566Z,102314.56
2022-12-04T03:52:16.477Z,102308.78
2022-12-04T03:55:14.739Z,102301.06
2022-12-04T03:57:44.547Z,102306.47
2022-12-04T04:00:15.660Z,102304.56
2022-12-04T04:02:50.788Z,102294.94
2022-12-04T04:05:18.010Z,102296.47
2022-12-04T04:07:55.716Z,102298.81
2022-12-04T04:10:26.536Z,102303.81
2022-12-04T04:13:20.801Z,102294.56
2022-12-04T04:16:12.832Z,102301.53
2022-12-04T04:19:00.329Z,102294.59
2022-12-04T04:21:49.199Z,102306.56
2022-12-04T04:24:43.157Z,102305.44
2022-12-04T04:27:09.650Z,102301.97
2022-12-04T04:29:36.669Z,102300.03
2022-12-04T04:32:31.174Z,102299.28
2022-12-04T04:35:12.307Z,102293.88
2022-12-04T04:37:38.694Z,102291.56
2022-12-04T04:40:20.187Z,102295.47
2022-12-04T04:43:15.861Z,102297.38
2022-12-04T04:45:53.680Z,102297.38
2022-12-04T04:48:28.672Z,102293.94
2022-12-04T04:50:55.711Z,102297.38
2022-12-04T04:53:29.572Z,102301.66
2022-12-04T04:55:57.035Z,102300.50
2022-12-04T04:58:23.517Z,102297.81
2022-12-04T05:01:01.164Z,102302.44
2022-12-04T05:03:28.417Z,102308.25
2022-12-04T05:05:55.027Z,102306.31
2022-12-04T05:08:22.249Z,102308.63
2022-12-04T05:10:48.782Z,102297.81
2022-12-04T05:13:15.962Z,102300.53
2022-12-04T05:15:42.533Z,102303.63
2022-12-04T05:18:09.273Z,102302.09
2022-12-04T05:20:39.198Z,102301.72
2022-12-04T05:23:07.271Z,102298.63
2022-12-04T05:25:33.701Z,102304.44
2022-12-04T05:28:00.169Z,102302.50
2022-12-04T05:30:26.662Z,102297.50
2022-12-04T05:32:53.168Z,102297.50
2022-12-04T05:35:19.683Z,102300.19
2022-12-04T05:37:48.973Z,102301.34
2022-12-04T05:40:15.753Z,102302.91
2022-12-04T05:42:42.477Z,102300.97
2022-12-04T05:45:09.672Z,102304.06
2022-12-04T05:47:42.616Z,102297.13
2022-12-04T05:50:14.572Z,102298.25
2022-12-04T05:52:41.310Z,102295.56
2022-12-04T05:55:08.365Z,102292.13
2022-12-04T05:57:37.544Z,102294.44
2022-12-04T06:00:06.162Z,102291.34
2022-12-04T06:02:34.324Z,102290.91
2022-12-04T06:05:01.002Z,102292.81
2022-12-04T06:07:27.586Z,102297.03
2022-12-04T06:09:55.405Z,102300.09
2022-12-04T06:12:22.105Z,102303.91
2022-12-04T06:14:48.543Z,102299.19
2022-12-04T06:17:15.083Z,102296.81
2022-12-04T06:19:41.787Z,102295.19
2022-12-04T06:22:11.225Z,102299.00
2022-12-04T06:24:38.734Z,102298.16
2022-12-04T06:27:26.745Z,102294.19
2022-12-04T06:29:52.153Z,102291.75
2022-12-04T06:32:21.859Z,102292.06
2022-12-04T06:34:52.914Z,102293.88
2022-12-04T06:37:20.803Z,102293.41
2022-12-04T06:39:47.318Z,102301.81
2022-12-04T06:42:13.833Z,102300.97
2022-12-04T06:44:40.290Z,102303.94
2022-12-04T06:47:06.718Z,102304.66
2022-12-04T06:49:33.206Z,102303.41
2022-12-04T06:51:59.678Z,102304.81
2022-12-04T06:54:26.565Z,102311.69
2022-12-04T06:56:53.041Z,102301.94
2022-12-04T06:59:19.551Z,102312.72
2022-12-04T07:01:46.080Z,102321.94
2022-12-04T07:04:12.587Z,102321.53
2022-12-04T07:06:39.627Z,102316.88
2022-12-04T07:09:15.688Z,102324.59
2022-12-04T07:11:43.102Z,102328.50
2022-12-04T07:14:10.002Z,102319.22
2022-12-04T07:16:41.219Z,102328.19
2022-12-04T07:19:13.627Z,102327.81
2022-12-04T07:21:41.697Z,102328.66
2022-12-04T07:24:08.677Z,102329.03
2022-12-04T07:26:35.424Z,102321.72
2022-12-04T07:29:01.968Z,102326.34
2022-12-04T07:31:29.990Z,102326.69
2022-12-04T07:33:57.934Z,102317.34
2022-12-04T07:36:25.774Z,102318.81
2022-12-04T07:38:52.446Z,102322.63
2022-12-04T07:41:19.823Z,102323.69
2022-12-04T07:43:46.664Z,102325.91
2022-12-04T07:46:16.293Z,102325.84
2022-12-04T07:48:43.005Z,102323.41
2022-12-04T07:51:12.707Z,102317.91
2022-12-04T07:53:39.844Z,102322.44
2022-12-04T07:56:07.451Z,102325.81
2022-12-04T07:58:35.551Z,102324.94
2022-12-04T08:01:06.698Z,102323.25
2022-12-04T08:03:33.476Z,102331.31
2022-12-04T08:06:03.987Z,102330.84
2022-12-04T08:08:30.780Z,102336.16
2022-12-04T08:10:57.423Z,102335.25
2022-12-04T08:13:24.087Z,102335.94
2022-12-04T08:15:50.870Z,102339.38
2022-12-04T08:18:19.613Z,102347.41
2022-12-04T08:20:46.348Z,102338.75
2022-12-04T08:23:12.949Z,102339.81
2022-12-04T08:25:40.970Z,102339.34
2022-12-04T08:28:07.993Z,102340.06
2022-12-04T08:30:35.770Z,102332.91
2022-12-04T08:33:02.886Z,102334.38
2022-12-04T08:35:29.445Z,102335.84
2022-12-04T08:37:55.919Z,102332.66
2022-12-04T08:40:23.318Z,102335.63
2022-12-04T08:42:49.921Z,102335.13
2022-12-04T08:45:16.606Z,102337.00
2022-12-04T08:47:45.793Z,102329.97
2022-12-04T08:50:14.493Z,102329.06
2022-12-04T08:52:40.980Z,102337.91
2022-12-04T08:55:07.840Z,102331.97
2022-12-04T08:57:34.384Z,102333.06
2022-12-04T09:00:00.860Z,102333.34
2022-12-04T09:02:27.328Z,102330.53
2022-12-04T09:04:53.819Z,102329.69
2022-12-04T09:07:20.883Z,102324.94
2022-12-04T09:09:55.319Z,102324.88
2022-12-04T09:12:21.886Z,102328.25
2022-12-04T09:14:48.350Z,102335.91
2022-12-04T09:17:15.000Z,102333.53
2022-12-04T09:19:41.478Z,102343.59
2022-12-04T09:22:07.995Z,102341.53
2022-12-04T09:24:34.462Z,102341.47
2022-12-04T09:27:01.374Z,102338.66
2022-12-04T09:29:28.034Z,102330.81
2022-12-04T09:31:54.601Z,102331.19
2022-12-04T09:34:21.134Z,102335.41
2022-12-04T09:36:47.707Z,102327.56
2022-12-04T09:39:14.190Z,102334.91
2022-12-04T09:42:13.569Z,102332.84
2022-12-04T09:44:56.463Z,102323.91
2022-12-04T09:47:32.040Z,102321.47
2022-12-04T09:50:43.959Z,102320.25
2022-12-04T09:53:16.600Z,102314.72
2022-12-04T09:55:49.345Z,102315.84
2022-12-04T09:58:22.165Z,102318.09
2022-12-04T10:00:49.905Z,102312.22
2022-12-04T10:03:20.108Z,102308.66
2022-12-04T10:05:58.763Z,102305.94
2022-12-04T10:08:35.954Z,102315.22
2022-12-04T10:11:18.714Z,102302.38
2022-12-04T10:14:13.111Z,102304.22
2022-12-04T10:16:50.606Z,102308.91
2022-12-04T10:19:46.296Z,102301.03
2022-12-04T10:22:21.586Z,102300.22
2022-12-04T10:24:56.518Z,102300.13
2022-12-04T10:27:30.951Z,102301.22
2022-12-04T10:30:03.522Z,102301.53
2022-12-04T10:32:32.669Z,102295.66
2022-12-04T10:35:30.113Z,102294.81
2022-12-04T10:38:06.383Z,102295.16
2022-12-04T10:40:37.924Z,102302.09
2022-12-04T10:43:14.333Z,102302.78
2022-12-04T10:45:40.898Z,102298.09
2022-12-04T10:48:16.777Z,102287.97
2022-12-04T10:50:44.325Z,102294.06
2022-12-04T10:53:15.036Z,102287.47
2022-12-04T10:55:41.560Z,102269.91
2022-12-04T10:58:18.736Z,102278.41
2022-12-04T11:00:59.247Z,102277.53
2022-12-04T11:03:28.711Z,102269.69
2022-12-04T11:06:01.329Z,102268.50
2022-12-04T11:08:54.881Z,102272.75
2022-12-04T11:11:28.940Z,102267.22
2022-12-04T11:14:14.614Z,102274.19
2022-12-04T11:16:48.208Z,102279.19
2022-12-04T11:19:23.829Z,102283.44
2022-12-04T11:21:51.956Z,102279.13
2022-12-04T11:24:26.293Z,102267.75
2022-12-04T11:26:53.284Z,102273.97
2022-12-04T11:29:26.109Z,102267.75
2022-12-04T11:31:54.840Z,102269.63
2022-12-04T11:34:24.517Z,102263.72
2022-12-04T11:36:56.972Z,102263.72
2022-12-04T11:39:40.058Z,102257.06
2022-12-04T11:42:06.571Z,102255.16
2022-12-04T11:44:35.978Z,102241.06
2022-12-04T11:47:04.781Z,102245.31
2022-12-04T11:49:33.042Z,102244.84
2022-12-04T11:52:36.058Z,102245.59
2022-12-04T11:55:13.251Z,102245.50
2022-12-04T11:57:50.375Z,102253.28
2022-12-04T12:00:21.941Z,102231.47
2022-12-04T12:03:05.845Z,102243.13
2022-12-04T12:06:06.560Z,102236.13
2022-12-04T12:08:45.122Z,102236.03
2022-12-04T12:11:49.737Z,102234.81
2022-12-04T12:14:28.390Z,102233.19
2022-12-04T12:17:06.377Z,102235.94
2022-12-04T12:19:53.523Z,102237.44
2022-12-04T12:22:45.858Z,102237.78
2022-12-04T12:25:21.490Z,102224.16
2022-12-04T12:28:13.306Z,102224.47
2022-12-04T12:30:42.791Z,102230.25
2022-12-04T12:33:21.663Z,102233.00
2022-12-04T12:36:01.456Z,102227.88
2022-12-04T12:38:49.178Z,102224.69
2022-12-04T12:41:20.290Z,102225.44
2022-12-04T12:44:31.931Z,102220.44
2022-12-04T12:47:08.111Z,102203.63
2022-12-04T12:49:55.100Z,102210.63
2022-12-04T12:52:36.693Z,102209.44
2022-12-04T12:55:14.870Z,102196.53
2022-12-04T12:57:47.575Z,102204.72
2022-12-04T13:00:15.910Z,102197.63
2022-12-04T13:02:57.559Z,102190.22
2022-12-04T13:05:46.393Z,102189.00
2022-12-04T13:08:21.783Z,102181.16
2022-12-04T13:11:01.432Z,102173.72
2022-12-04T13:13:32.432Z,102172.84
2022-12-04T13:16:05.352Z,102168.16
2022-12-04T13:18:46.247Z,102173.72
2022-12-04T13:21:27.697Z,102177.53
2022-12-04T13:24:03.188Z,102174.06
2022-12-04T13:26:49.782Z,102173.41
2022-12-04T13:29:37.845Z,102174.63
2022-12-04T13:32:26.801Z,102174.38
2022-12-04T13:35:38.302Z,102166.44
2022-12-04T13:38:29.548Z,102167.47
2022-12-04T13:41:00.760Z,102171.59
2022-12-04T13:43:36.364Z,102164.81
2022-12-04T13:46:07.296Z,102168.97
2022-12-04T13:48:33.824Z,102174.31
2022-12-04T13:51:03.013Z,102182.72
2022-12-04T13:53:40.427Z,102173.66
2022-12-04T13:56:23.005Z,102178.53
2022-12-04T13:58:59.883Z,102182.34
2022-12-04T14:01:36.051Z,102188.72
2022-12-04T14:04:02.978Z,102185.44
2022-12-04T14:06:37.882Z,102180.19
2022-12-04T14:09:08.361Z,102178.09
2022-12-04T14:11:51.413Z,102182.94
2022-12-04T14:14:39.423Z,102184.31
2022-12-04T14:17:15.586Z,102183.34
2022-12-04T14:19:45.427Z,102186.66
2022-12-04T14:22:34.511Z,102181.81
2022-12-04T14:25:13.075Z,102182.44
2022-12-04T14:27:51.605Z,102183.38
2022-12-04T14:30:36.448Z,102178.13
2022-12-04T14:33:21.575Z,102181.00
2022-12-04T14:35:56.251Z,102186.19
2022-12-04T14:38:23.616Z,102177.78
2022-12-04T14:40:53.649Z,102177.09
2022-12-04T14:43:27.119Z,102165.53
2022-12-04T14:46:23.413Z,102162.13
2022-12-04T14:49:37.037Z,102158.72
2022-12-04T14:52:03.463Z,102149.47
2022-12-04T14:54:44.870Z,102158.03
2022-12-04T14:57:26.546Z,102148.78
2022-12-04T14:59:54.878Z,102144.53
2022-12-04T15:02:33.565Z,102149.63
2022-12-04T15:05:02.109Z,102148.84
2022-12-04T15:07:31.679Z,102152.00
2022-12-04T15:10:18.769Z,102144.28
2022-12-04T15:12:51.907Z,102139.69
2022-12-04T15:15:27.429Z,102151.72
2022-12-04T15:18:09.178Z,102155.31
2022-12-04T15:20:49.240Z,102153.00
2022-12-04T15:23:18.826Z,102150.69
2022-12-04T15:25:48.871Z,102149.16
2022-12-04T15:28:48.414Z,102151.56
2022-12-04T15:31:22.454Z,102145.75
2022-12-04T15:33:52.224Z,102147.75
2022-12-04T15:36:24.996Z,102141.16
2022-12-04T15:38:52.868Z,102136.91
2022-12-04T15:41:33.758Z,102140.06
2022-12-04T15:44:01.077Z,102132.34
2022-12-04T15:46:37.778Z,102134.72
2022-12-04T15:49:16.910Z,102135.50
2022-12-04T15:51:46.018Z,102129.28
2022-12-04T15:54:25.689Z,102133.19
2022-12-04T15:57:04.224Z,102133.97
2022-12-04T15:59:31.295Z,102125.47
2022-12-04T16:02:07.749Z,102130.09
2022-12-04T16:04:35.829Z,102119.22
2022-12-04T16:07:03.398Z,102128.59
2022-12-04T16:09:30.511Z,102131.31
2022-12-04T16:12:02.060Z,102133.25
2022-12-04T16:14:28.578Z,102133.25
2022-12-04T16:17:05.616Z,102132.50
2022-12-04T16:19:38.779Z,102126.28
2022-12-04T16:22:12.916Z,102130.53
2022-12-04T16:24:39.841Z,102128.25
2022-12-04T16:27:12.688Z,102134.13
2022-12-04T16:29:39.234Z,102127.47
2022-12-04T16:32:06.136Z,102130.19
2022-12-04T16:34:32.918Z,102144.53
2022-12-04T16:36:59.531Z,102144.19
2022-12-04T16:39:26.080Z,102145.00
2022-12-04T16:41:52.530Z,102136.47
2022-12-04T16:44:19.071Z,102144.19
2022-12-04T16:46:45.762Z,102141.47
2022-12-04T16:49:12.936Z,102140.72
2022-12-04T16:51:45.782Z,102140.38
2022-12-04T16:54:13.370Z,102142.66
2022-12-04T16:56:39.860Z,102150.81
2022-12-04T16:59:11.581Z,102146.56
2022-12-04T17:01:42.718Z,102159.38
2022-12-04T17:04:10.049Z,102161.34
2022-12-04T17:06:36.618Z,102152.84
2022-12-04T17:09:04.030Z,102150.53
2022-12-04T17:11:30.569Z,102151.72
2022-12-04T17:13:57.404Z,102149.84
2022-12-04T17:16:24.979Z,102154.50
2022-12-04T17:18:51.846Z,102149.91
2022-12-04T17:21:18.360Z,102160.78
2022-12-04T17:23:44.938Z,102156.91
2022-12-04T17:26:13.807Z,102161.97
2022-12-04T17:28:40.553Z,102166.63
2022-12-04T17:31:19.615Z,102168.94
2022-12-04T17:33:46.474Z,102175.13
2022-12-04T17:36:15.639Z,102167.78
2022-12-04T17:38:43.025Z,102175.91
2022-12-04T17:41:13.695Z,102176.25
2022-12-04T17:43:41.707Z,102168.09
2022-12-04T17:46:10.799Z,102178.53
2022-12-04T17:48:37.889Z,102176.94
2022-12-04T17:51:25.010Z,102179.66
2022-12-04T17:53:51.896Z,102188.16
2022-12-04T17:56:21.612Z,102183.84
2022-12-04T17:58:48.838Z,102184.19
2022-12-04T18:01:17.977Z,102186.47
2022-12-04T18:03:53.067Z,102184.53
2022-12-04T18:06:23.583Z,102181.41
2022-12-04T18:08:51.147Z,102175.97
2022-12-04T18:11:22.297Z,102177.50
2022-12-04T18:13:53.252Z,102177.84
2022-12-04T18:16:19.796Z,102181.31
2022-12-04T18:18:47.518Z,102179.38
2022-12-04T18:21:14.734Z,102184.03
2022-12-04T18:23:45.693Z,102179.38
2022-12-04T18:26:24.113Z,102174.25
2022-12-04T18:28:51.386Z,102172.75
2022-12-04T18:31:19.280Z,102180.91
2022-12-04T18:33:46.454Z,102184.38
2022-12-04T18:36:16.312Z,102185.13
2022-12-04T18:38:43.518Z,102183.63
2022-12-04T18:41:11.988Z,102181.66
2022-12-04T18:43:41.503Z,102177.41
2022-12-04T18:46:10.660Z,102175.47
2022-12-04T18:48:38.134Z,102167.75
2022-12-04T18:51:17.539Z,102173.94
2022-12-04T18:53:44.204Z,102170.03
2022-12-04T18:56:10.766Z,102177.41
2022-12-04T18:58:37.198Z,102173.16
2022-12-04T19:01:11.516Z,102176.28
2022-12-04T19:03:38.283Z,102179.00
2022-12-04T19:06:04.889Z,102179.38
2022-12-04T19:08:34.352Z,102170.84
2022-12-04T19:11:09.070Z,102176.72
2022-12-04T19:13:35.974Z,102180.13
2022-12-04T19:16:02.894Z,102173.16
2022-12-04T19:18:30.209Z,102181.72
2022-12-04T19:20:57.404Z,102181.31
2022-12-04T19:23:23.945Z,102177.06
2022-12-04T19:26:00.070Z,102174.34
2022-12-04T19:28:30.170Z,102180.22
2022-12-04T19:30:57.045Z,102165.84
2022-12-04T19:33:24.761Z,102178.69
2022-12-04T19:36:02.535Z,102171.28
2022-12-04T19:38:30.799Z,102170.09
2022-12-04T19:41:04.098Z,102173.25
2022-12-04T19:43:30.585Z,102165.66
2022-12-04T19:45:57.129Z,102163.75
2022-12-04T19:48:23.825Z,102176.88
2022-12-04T19:50:50.280Z,102160.03
2022-12-04T19:53:16.785Z,102168.22
2022-12-04T19:55:43.329Z,102166.97
2022-12-04T19:58:09.790Z,102170.81
2022-12-04T20:00:36.595Z,102166.47
2022-12-04T20:03:03.189Z,102167.94
2022-12-04T20:05:29.678Z,102184.19
2022-12-04T20:07:56.293Z,102168.16
2022-12-04T20:10:22.852Z,102171.59
2022-12-04T20:12:49.354Z,102164.16
2022-12-04T20:15:15.981Z,102162.88
2022-12-04T20:17:42.449Z,102158.16
2022-12-04T20:20:09.203Z,102153.81
2022-12-04T20:22:36.414Z,102147.13
2022-12-04T20:25:03.123Z,102154.03
2022-12-04T20:27:32.360Z,102155.56
2022-12-04T20:29:59.069Z,102147.34
2022-12-04T20:32:25.721Z,102144.19
2022-12-04T20:34:52.179Z,102141.81
2022-12-04T20:37:18.691Z,102147.59
2022-12-04T20:39:45.167Z,102140.97
2022-12-04T20:42:11.881Z,102145.25
2022-12-04T20:44:38.321Z,102144.47
2022-12-04T20:47:04.892Z,102137.09
2022-12-04T20:49:31.354Z,102144.06
2022-12-04T20:51:58.022Z,102130.47
2022-12-04T20:54:24.583Z,102128.94
2022-12-04T20:56:54.338Z,102123.50
2022-12-04T20:59:22.352Z,102133.19
2022-12-04T21:01:49.328Z,102128.19
2022-12-04T21:04:18.044Z,102127.81
2022-12-04T21:06:46.665Z,102136.41
2022-12-04T21:09:16.349Z,102145.72
2022-12-04T21:11:45.887Z,102144.53
2022-12-04T21:14:40.040Z,102144.19
2022-12-04T21:17:09.406Z,102140.31
2022-12-04T21:19:36.425Z,102138.41
2022-12-04T21:22:03.002Z,102136.47
2022-12-04T21:24:32.503Z,102131.81
2022-12-04T21:26:59.017Z,102127.56
2022-12-04T21:29:27.963Z,102131.47
2022-12-04T21:31:54.494Z,102130.28
2022-12-04T21:34:21.034Z,102127.25
2022-12-04T21:36:47.600Z,102132.66
2022-12-04T21:39:15.416Z,102124.06
2022-12-04T21:42:00.534Z,102121.81
2022-12-04T21:44:27.102Z,102110.16
2022-12-04T21:46:53.673Z,102108.22
2022-12-04T21:49:20.338Z,102115.56
2022-12-04T21:52:02.068Z,102117.53
2022-12-04T21:54:29.117Z,102112.44
2022-12-04T21:56:56.580Z,102111.69
2022-12-04T21:59:24.479Z,102106.66
2022-12-04T22:01:51.280Z,102111.34
2022-12-04T22:04:18.014Z,102107.84
2022-12-04T22:06:44.650Z,102107.84
2022-12-04T22:09:12.459Z,102121.00
2022-12-04T22:11:41.558Z,102119.56
2022-12-04T22:14:09.037Z,102126.84
2022-12-04T22:16:41.613Z,102122.19
2022-12-04T22:19:10.106Z,102121.13
2022-12-04T22:21:36.573Z,102130.75
2022-12-04T22:24:04.781Z,102117.25
2022-12-04T22:26:31.646Z,102118.03
2022-12-04T22:28:58.288Z,102116.50
2022-12-04T22:31:27.341Z,102113.47
2022-12-04T22:33:55.431Z,102116.56
2022-12-04T22:36:25.346Z,102112.75
2022-12-04T22:39:08.801Z,102111.63
2022-12-04T22:41:36.173Z,102107.44
2022-12-04T22:44:02.831Z,102109.06
2022-12-04T22:46:29.514Z,102102.94
2022-12-04T22:48:56.056Z,102106.50
2022-12-04T22:51:22.932Z,102096.91
2022-12-04T22:53:52.022Z,102104.69
2022-12-04T22:56:27.710Z,102099.38
2022-12-04T22:58:55.113Z,102097.16
2022-12-04T23:01:39.713Z,102100.81
2022-12-04T23:04:06.306Z,102088.81
2022-12-04T23:06:34.167Z,102090.50
2022-12-04T23:09:11.382Z,102092.91
2022-12-04T23:11:38.189Z,102087.56
2022-12-04T23:14:07.214Z,102081.44
2022-12-04T23:16:37.061Z,102077.66
2022-12-04T23:19:04.590Z,102079.66
2022-12-04T23:21:31.253Z,102074.72
2022-12-04T23:23:57.820Z,102073.59
2022-12-04T23:26:31.072Z,102079.50
2022-12-04T23:28:58.193Z,102073.00
2022-12-04T23:31:25.590Z,102081.91
2022-12-04T23:33:52.135Z,102085.88
2022-12-04T23:36:18.749Z,102083.22
2022-12-04T23:38:45.473Z,102076.69
2022-12-04T23:41:18.108Z,102068.28
2022-12-04T23:43:45.151Z,102076.03
2022-12-04T23:46:12.831Z,102060.56
2022-12-04T23:48:40.823Z,102060.25
2022-12-04T23:51:08.475Z,102052.91
2022-12-04T23:53:35.226Z,102053.75
2022-12-04T23:56:12.402Z,102060.00
2022-12-04T23:58:39.583Z,102050.34
